sensor_id;sensor_type;location;lat;lon;timestamp;pressure;altitude;pressure_sealevel;temperature;humidity
46456;BME280;64052;47.466;9.094;2023-01-04T00:04:37;97011.44;;;9.29;67.07
46456;BME280;64052;47.466;9.094;2023-01-04T00:09:39;96981.16;;;8.93;67.59
46456;BME280;64052;47.466;9.094;2023-01-04T00:14:40;96993.34;;;8.65;68.33
46456;BME280;64052;47.466;9.094;2023-01-04T00:19:42;96998.75;;;8.62;67.99
46456;BME280;64052;47.466;9.094;2023-01-04T00:24:44;96981.50;;;8.72;67.85
46456;BME280;64052;47.466;9.094;2023-01-04T00:29:45;96986.78;;;8.86;67.39
46456;BME280;64052;47.466;9.094;2023-01-04T00:34:47;96984.13;;;8.72;67.43
46456;BME280;64052;47.466;9.094;2023-01-04T00:39:48;96978.41;;;8.65;66.92
46456;BME280;64052;47.466;9.094;2023-01-04T00:44:50;96977.16;;;8.56;66.71
46456;BME280;64052;47.466;9.094;2023-01-04T00:49:51;96986.00;;;8.55;66.48
46456;BME280;64052;47.466;9.094;2023-01-04T00:54:53;96980.94;;;8.67;66.57
46456;BME280;64052;47.466;9.094;2023-01-04T00:59:54;96976.91;;;8.61;67.17
46456;BME280;64052;47.466;9.094;2023-01-04T01:04:56;96969.00;;;8.61;68.27
46456;BME280;64052;47.466;9.094;2023-01-04T01:09:57;96961.59;;;8.68;68.61
46456;BME280;64052;47.466;9.094;2023-01-04T01:14:59;96978.13;;;8.70;68.22
46456;BME280;64052;47.466;9.094;2023-01-04T01:20:02;96987.97;;;8.66;68.31
46456;BME280;64052;47.466;9.094;2023-01-04T01:25:05;96995.19;;;8.63;68.31
46456;BME280;64052;47.466;9.094;2023-01-04T01:30:08;96992.22;;;8.69;67.83
46456;BME280;64052;47.466;9.094;2023-01-04T01:35:10;96997.25;;;8.57;68.40
46456;BME280;64052;47.466;9.094;2023-01-04T01:40:11;96998.47;;;8.52;68.76
46456;BME280;64052;47.466;9.094;2023-01-04T01:45:29;96986.94;;;8.54;68.88
46456;BME280;64052;47.466;9.094;2023-01-04T01:50:35;96996.13;;;8.62;67.89
46456;BME280;64052;47.466;9.094;2023-01-04T01:55:39;96998.09;;;8.58;68.32
46456;BME280;64052;47.466;9.094;2023-01-04T02:00:42;96990.97;;;8.60;69.23
46456;BME280;64052;47.466;9.094;2023-01-04T02:05:46;97001.78;;;8.70;68.58
46456;BME280;64052;47.466;9.094;2023-01-04T02:10:49;97004.47;;;8.99;68.06
46456;BME280;64052;47.466;9.094;2023-01-04T02:21:21;96989.94;;;9.08;67.94
46456;BME280;64052;47.466;9.094;2023-01-04T02:26:50;96989.94;;;9.22;67.39
46456;BME280;64052;47.466;9.094;2023-01-04T02:32:00;96978.00;;;9.17;67.51
46456;BME280;64052;47.466;9.094;2023-01-04T02:37:22;96981.66;;;9.14;67.61
46456;BME280;64052;47.466;9.094;2023-01-04T02:42:54;96983.81;;;9.07;67.63
46456;BME280;64052;47.466;9.094;2023-01-04T02:48:02;96971.94;;;9.00;67.69
46456;BME280;64052;47.466;9.094;2023-01-04T02:53:13;96982.31;;;9.03;67.65
46456;BME280;64052;47.466;9.094;2023-01-04T03:04:28;96970.84;;;9.04;68.02
46456;BME280;64052;47.466;9.094;2023-01-04T03:09:35;96974.03;;;8.95;68.50
46456;BME280;64052;47.466;9.094;2023-01-04T03:14:46;96976.28;;;9.01;68.77
46456;BME280;64052;47.466;9.094;2023-01-04T03:19:52;96982.13;;;9.06;68.54
46456;BME280;64052;47.466;9.094;2023-01-04T03:24:55;96979.69;;;9.03;69.04
46456;BME280;64052;47.466;9.094;2023-01-04T03:30:04;96982.31;;;9.03;68.92
46456;BME280;64052;47.466;9.094;2023-01-04T03:35:07;96978.63;;;8.91;69.07
46456;BME280;64052;47.466;9.094;2023-01-04T03:40:23;96975.38;;;8.57;70.45
46456;BME280;64052;47.466;9.094;2023-01-04T03:45:30;96969.97;;;8.60;70.78
46456;BME280;64052;47.466;9.094;2023-01-04T03:50:38;96960.47;;;8.57;70.39
46456;BME280;64052;47.466;9.094;2023-01-04T03:55:42;96947.13;;;8.61;70.46
46456;BME280;64052;47.466;9.094;2023-01-04T04:00:45;96936.25;;;8.52;70.26
46456;BME280;64052;47.466;9.094;2023-01-04T04:05:47;96924.81;;;8.37;70.30
46456;BME280;64052;47.466;9.094;2023-01-04T04:10:49;96914.97;;;8.41;69.98
46456;BME280;64052;47.466;9.094;2023-01-04T04:15:53;96915.38;;;8.19;69.82
46456;BME280;64052;47.466;9.094;2023-01-04T04:20:57;96909.75;;;8.10;70.06
46456;BME280;64052;47.466;9.094;2023-01-04T04:25:59;96915.00;;;8.10;69.37
46456;BME280;64052;47.466;9.094;2023-01-04T04:31:01;96916.84;;;8.08;69.46
46456;BME280;64052;47.466;9.094;2023-01-04T04:36:03;96915.50;;;8.01;69.42
46456;BME280;64052;47.466;9.094;2023-01-04T04:41:06;96913.50;;;7.90;68.40
46456;BME280;64052;47.466;9.094;2023-01-04T04:46:07;96921.16;;;7.79;68.27
46456;BME280;64052;47.466;9.094;2023-01-04T04:51:09;96922.16;;;7.92;67.57
46456;BME280;64052;47.466;9.094;2023-01-04T04:56:11;96923.41;;;7.85;67.38
46456;BME280;64052;47.466;9.094;2023-01-04T05:01:12;96926.50;;;7.77;67.74
46456;BME280;64052;47.466;9.094;2023-01-04T05:06:14;96926.81;;;7.71;68.12
46456;BME280;64052;47.466;9.094;2023-01-04T05:11:15;96921.50;;;7.72;68.37
46456;BME280;64052;47.466;9.094;2023-01-04T05:16:17;96921.00;;;7.66;68.26
46456;BME280;64052;47.466;9.094;2023-01-04T05:21:19;96926.31;;;7.64;68.25
46456;BME280;64052;47.466;9.094;2023-01-04T05:26:20;96920.16;;;7.49;68.80
46456;BME280;64052;47.466;9.094;2023-01-04T05:31:23;96922.84;;;7.80;68.85
46456;BME280;64052;47.466;9.094;2023-01-04T05:36:25;96919.28;;;7.81;67.90
46456;BME280;64052;47.466;9.094;2023-01-04T05:41:26;96928.50;;;7.88;68.11
46456;BME280;64052;47.466;9.094;2023-01-04T05:46:28;96924.13;;;8.19;66.94
46456;BME280;64052;47.466;9.094;2023-01-04T05:51:29;96918.31;;;8.28;66.81
46456;BME280;64052;47.466;9.094;2023-01-04T05:56:31;96917.84;;;7.91;67.57
46456;BME280;64052;47.466;9.094;2023-01-04T06:01:32;96914.44;;;7.89;67.66
46456;BME280;64052;47.466;9.094;2023-01-04T06:06:34;96913.81;;;8.00;68.07
46456;BME280;64052;47.466;9.094;2023-01-04T06:11:36;96908.13;;;8.08;67.92
46456;BME280;64052;47.466;9.094;2023-01-04T06:16:37;96916.31;;;8.18;68.26
46456;BME280;64052;47.466;9.094;2023-01-04T06:21:39;96913.38;;;8.38;67.58
46456;BME280;64052;47.466;9.094;2023-01-04T06:26:40;96918.88;;;8.64;67.34
46456;BME280;64052;47.466;9.094;2023-01-04T06:31:42;96918.78;;;8.80;66.35
46456;BME280;64052;47.466;9.094;2023-01-04T06:36:43;96904.91;;;8.93;65.86
46456;BME280;64052;47.466;9.094;2023-01-04T06:41:45;96903.00;;;8.95;66.00
46456;BME280;64052;47.466;9.094;2023-01-04T06:46:47;96915.03;;;8.99;65.71
46456;BME280;64052;47.466;9.094;2023-01-04T06:51:48;96912.22;;;9.02;65.42
46456;BME280;64052;47.466;9.094;2023-01-04T06:56:49;96922.03;;;9.27;64.84
46456;BME280;64052;47.466;9.094;2023-01-04T07:01:51;96927.34;;;9.13;65.42
46456;BME280;64052;47.466;9.094;2023-01-04T07:06:53;96932.81;;;8.95;65.36
46456;BME280;64052;47.466;9.094;2023-01-04T07:11:54;96927.91;;;8.89;65.78
46456;BME280;64052;47.466;9.094;2023-01-04T07:16:56;96935.72;;;8.91;65.81
46456;BME280;64052;47.466;9.094;2023-01-04T07:21:57;96916.81;;;8.69;66.76
46456;BME280;64052;47.466;9.094;2023-01-04T07:26:59;96930.16;;;8.81;66.04
46456;BME280;64052;47.466;9.094;2023-01-04T07:32:01;96932.03;;;8.79;66.32
46456;BME280;64052;47.466;9.094;2023-01-04T07:37:03;96934.09;;;8.74;67.08
46456;BME280;64052;47.466;9.094;2023-01-04T07:42:04;96925.56;;;8.84;67.12
46456;BME280;64052;47.466;9.094;2023-01-04T07:47:06;96929.50;;;8.77;67.14
46456;BME280;64052;47.466;9.094;2023-01-04T07:52:07;96921.41;;;8.95;67.58
46456;BME280;64052;47.466;9.094;2023-01-04T07:57:09;96922.84;;;9.00;67.73
46456;BME280;64052;47.466;9.094;2023-01-04T08:02:11;96932.31;;;8.74;68.31
46456;BME280;64052;47.466;9.094;2023-01-04T08:07:12;96924.78;;;8.68;68.56
46456;BME280;64052;47.466;9.094;2023-01-04T08:12:14;96932.31;;;9.03;67.99
46456;BME280;64052;47.466;9.094;2023-01-04T08:17:15;96927.63;;;8.94;68.62
46456;BME280;64052;47.466;9.094;2023-01-04T08:22:17;96930.63;;;9.02;68.72
46456;BME280;64052;47.466;9.094;2023-01-04T08:27:18;96931.47;;;9.03;68.98
46456;BME280;64052;47.466;9.094;2023-01-04T08:32:20;96929.59;;;8.90;68.91
46456;BME280;64052;47.466;9.094;2023-01-04T08:37:21;96938.88;;;9.10;68.89
46456;BME280;64052;47.466;9.094;2023-01-04T08:42:23;96935.66;;;9.34;68.84
46456;BME280;64052;47.466;9.094;2023-01-04T08:47:32;96935.84;;;9.46;66.52
46456;BME280;64052;47.466;9.094;2023-01-04T08:52:33;96938.16;;;9.65;66.54
46456;BME280;64052;47.466;9.094;2023-01-04T08:57:35;96942.97;;;9.86;66.11
46456;BME280;64052;47.466;9.094;2023-01-04T09:02:36;96949.66;;;9.91;65.41
46456;BME280;64052;47.466;9.094;2023-01-04T09:07:38;96940.53;;;10.10;65.29
46456;BME280;64052;47.466;9.094;2023-01-04T09:12:40;96938.97;;;10.20;63.83
46456;BME280;64052;47.466;9.094;2023-01-04T09:17:41;96940.56;;;10.36;63.43
46456;BME280;64052;47.466;9.094;2023-01-04T09:23:03;96930.19;;;10.47;63.02
46456;BME280;64052;47.466;9.094;2023-01-04T09:28:04;96929.19;;;10.63;63.20
46456;BME280;64052;47.466;9.094;2023-01-04T09:33:06;96929.09;;;10.37;61.89
46456;BME280;64052;47.466;9.094;2023-01-04T09:38:07;96923.56;;;10.67;60.53
46456;BME280;64052;47.466;9.094;2023-01-04T09:43:15;96931.59;;;10.92;59.64
46456;BME280;64052;47.466;9.094;2023-01-04T09:48:26;96932.22;;;10.95;60.15
46456;BME280;64052;47.466;9.094;2023-01-04T09:53:37;96921.13;;;10.90;58.90
46456;BME280;64052;47.466;9.094;2023-01-04T09:58:40;96927.06;;;10.81;59.54
46456;BME280;64052;47.466;9.094;2023-01-04T10:04:06;96921.25;;;10.89;57.76
46456;BME280;64052;47.466;9.094;2023-01-04T10:09:14;96912.69;;;10.72;58.35
46456;BME280;64052;47.466;9.094;2023-01-04T10:35:29;96869.91;;;11.19;57.53
46456;BME280;64052;47.466;9.094;2023-01-04T10:40:37;96851.66;;;11.16;57.13
46456;BME280;64052;47.466;9.094;2023-01-04T10:45:47;96851.41;;;11.32;56.00
46456;BME280;64052;47.466;9.094;2023-01-04T10:50:56;96843.19;;;11.48;55.51
46456;BME280;64052;47.466;9.094;2023-01-04T10:56:14;96857.72;;;11.53;55.49
46456;BME280;64052;47.466;9.094;2023-01-04T11:01:45;96842.69;;;11.67;54.43
46456;BME280;64052;47.466;9.094;2023-01-04T11:06:58;96840.16;;;11.65;53.75
46456;BME280;64052;47.466;9.094;2023-01-04T11:12:01;96838.41;;;11.77;53.39
46456;BME280;64052;47.466;9.094;2023-01-04T11:17:04;96813.09;;;11.86;53.30
46456;BME280;64052;47.466;9.094;2023-01-04T11:27:35;96813.06;;;11.75;52.12
46456;BME280;64052;47.466;9.094;2023-01-04T11:33:00;96802.03;;;11.81;51.77
46456;BME280;64052;47.466;9.094;2023-01-04T11:38:18;96799.72;;;11.76;51.10
46456;BME280;64052;47.466;9.094;2023-01-04T11:43:21;96795.41;;;11.75;51.72
46456;BME280;64052;47.466;9.094;2023-01-04T11:48:34;96801.59;;;11.87;51.35
46456;BME280;64052;47.466;9.094;2023-01-04T11:53:36;96786.06;;;11.83;50.21
46456;BME280;64052;47.466;9.094;2023-01-04T11:58:38;96787.16;;;11.91;50.06
46456;BME280;64052;47.466;9.094;2023-01-04T12:03:40;96787.41;;;11.88;48.55
46456;BME280;64052;47.466;9.094;2023-01-04T12:08:42;96797.84;;;11.90;50.41
46456;BME280;64052;47.466;9.094;2023-01-04T12:13:43;96779.25;;;11.91;50.17
46456;BME280;64052;47.466;9.094;2023-01-04T12:18:45;96755.69;;;11.88;48.82
46456;BME280;64052;47.466;9.094;2023-01-04T12:23:47;96761.44;;;11.82;49.19
46456;BME280;64052;47.466;9.094;2023-01-04T12:28:52;96759.88;;;11.79;48.34
46456;BME280;64052;47.466;9.094;2023-01-04T12:54:54;96741.44;;;11.55;49.57
46456;BME280;64052;47.466;9.094;2023-01-04T12:59:58;96736.63;;;11.49;49.87
46456;BME280;64052;47.466;9.094;2023-01-04T13:05:47;96735.81;;;11.60;49.46
46456;BME280;64052;47.466;9.094;2023-01-04T13:10:47;96731.34;;;11.60;49.81
46456;BME280;64052;47.466;9.094;2023-01-04T13:21:23;96714.53;;;11.50;50.26
46456;BME280;64052;47.466;9.094;2023-01-04T13:26:40;96711.31;;;11.58;49.60
46456;BME280;64052;47.466;9.094;2023-01-04T13:31:53;96704.72;;;11.63;48.85
46456;BME280;64052;47.466;9.094;2023-01-04T13:42:00;96698.72;;;11.73;47.79
46456;BME280;64052;47.466;9.094;2023-01-04T13:47:02;96703.31;;;11.82;49.37
46456;BME280;64052;47.466;9.094;2023-01-04T13:52:23;96695.69;;;12.02;47.86
46456;BME280;64052;47.466;9.094;2023-01-04T13:58:00;96708.19;;;12.11;47.13
46456;BME280;64052;47.466;9.094;2023-01-04T14:08:30;96713.66;;;11.97;47.09
46456;BME280;64052;47.466;9.094;2023-01-04T14:13:33;96709.09;;;11.87;46.85
46456;BME280;64052;47.466;9.094;2023-01-04T14:18:34;96703.69;;;11.89;47.90
46456;BME280;64052;47.466;9.094;2023-01-04T14:23:36;96701.53;;;11.94;48.03
46456;BME280;64052;47.466;9.094;2023-01-04T14:28:38;96717.59;;;11.91;47.38
46456;BME280;64052;47.466;9.094;2023-01-04T14:33:50;96717.50;;;11.92;48.62
46456;BME280;64052;47.466;9.094;2023-01-04T14:49:01;96712.72;;;11.98;48.56
46456;BME280;64052;47.466;9.094;2023-01-04T14:54:06;96715.38;;;12.09;48.98
46456;BME280;64052;47.466;9.094;2023-01-04T14:59:08;96720.66;;;12.09;49.73
46456;BME280;64052;47.466;9.094;2023-01-04T15:04:09;96720.91;;;12.06;50.42
46456;BME280;64052;47.466;9.094;2023-01-04T15:09:11;96728.72;;;12.07;50.56
46456;BME280;64052;47.466;9.094;2023-01-04T15:14:13;96741.16;;;11.83;52.54
46456;BME280;64052;47.466;9.094;2023-01-04T15:19:14;96736.59;;;11.96;52.72
46456;BME280;64052;47.466;9.094;2023-01-04T15:24:16;96729.63;;;11.95;53.97
46456;BME280;64052;47.466;9.094;2023-01-04T15:29:17;96741.44;;;12.02;54.24
46456;BME280;64052;47.466;9.094;2023-01-04T15:34:19;96729.56;;;12.08;54.68
46456;BME280;64052;47.466;9.094;2023-01-04T15:39:20;96731.25;;;11.62;55.60
46456;BME280;64052;47.466;9.094;2023-01-04T15:44:22;96730.41;;;11.73;55.62
46456;BME280;64052;47.466;9.094;2023-01-04T15:49:23;96722.38;;;11.74;55.49
46456;BME280;64052;47.466;9.094;2023-01-04T15:54:26;96724.78;;;11.77;56.34
46456;BME280;64052;47.466;9.094;2023-01-04T15:59:28;96722.78;;;11.92;55.75
46456;BME280;64052;47.466;9.094;2023-01-04T16:04:29;96723.50;;;11.94;56.11
46456;BME280;64052;47.466;9.094;2023-01-04T16:09:31;96724.09;;;11.87;56.88
46456;BME280;64052;47.466;9.094;2023-01-04T16:14:33;96716.28;;;11.97;56.64
46456;BME280;64052;47.466;9.094;2023-01-04T16:19:34;96715.09;;;11.89;56.94
46456;BME280;64052;47.466;9.094;2023-01-04T16:24:35;96715.56;;;11.83;57.26
46456;BME280;64052;47.466;9.094;2023-01-04T16:29:58;96720.75;;;11.96;56.97
46456;BME280;64052;47.466;9.094;2023-01-04T16:34:59;96706.56;;;11.97;57.51
46456;BME280;64052;47.466;9.094;2023-01-04T16:40:01;96716.06;;;12.00;57.49
46456;BME280;64052;47.466;9.094;2023-01-04T16:45:08;96711.50;;;11.90;56.79
46456;BME280;64052;47.466;9.094;2023-01-04T16:50:11;96706.28;;;11.77;56.00
46456;BME280;64052;47.466;9.094;2023-01-04T16:55:12;96684.22;;;11.90;55.71
46456;BME280;64052;47.466;9.094;2023-01-04T17:00:20;96678.22;;;11.88;55.20
46456;BME280;64052;47.466;9.094;2023-01-04T17:05:21;96680.50;;;11.81;55.40
46456;BME280;64052;47.466;9.094;2023-01-04T17:10:23;96685.75;;;11.70;55.04
46456;BME280;64052;47.466;9.094;2023-01-04T17:15:30;96673.06;;;11.86;55.96
46456;BME280;64052;47.466;9.094;2023-01-04T17:20:53;96668.84;;;11.95;56.34
46456;BME280;64052;47.466;9.094;2023-01-04T17:26:18;96662.84;;;11.93;56.52
46456;BME280;64052;47.466;9.094;2023-01-04T17:31:32;96653.03;;;12.06;56.40
46456;BME280;64052;47.466;9.094;2023-01-04T17:36:34;96648.19;;;12.00;55.83
46456;BME280;64052;47.466;9.094;2023-01-04T17:41:37;96643.78;;;12.12;55.93
46456;BME280;64052;47.466;9.094;2023-01-04T17:46:38;96644.00;;;12.32;55.43
46456;BME280;64052;47.466;9.094;2023-01-04T17:51:40;96644.50;;;12.26;55.60
46456;BME280;64052;47.466;9.094;2023-01-04T17:56:41;96644.72;;;12.34;55.28
46456;BME280;64052;47.466;9.094;2023-01-04T18:01:43;96639.66;;;12.42;55.16
46456;BME280;64052;47.466;9.094;2023-01-04T18:06:44;96648.44;;;12.43;54.91
46456;BME280;64052;47.466;9.094;2023-01-04T18:11:46;96637.00;;;12.54;54.68
46456;BME280;64052;47.466;9.094;2023-01-04T18:16:47;96629.78;;;12.44;54.72
46456;BME280;64052;47.466;9.094;2023-01-04T18:21:49;96635.56;;;12.49;54.86
46456;BME280;64052;47.466;9.094;2023-01-04T18:26:51;96621.16;;;12.31;54.64
46456;BME280;64052;47.466;9.094;2023-01-04T18:32:12;96607.47;;;12.26;54.92
46456;BME280;64052;47.466;9.094;2023-01-04T18:37:14;96615.50;;;12.35;54.79
46456;BME280;64052;47.466;9.094;2023-01-04T18:42:15;96622.38;;;12.27;55.48
46456;BME280;64052;47.466;9.094;2023-01-04T18:47:18;96647.59;;;12.42;55.04
46456;BME280;64052;47.466;9.094;2023-01-04T18:52:20;96642.03;;;12.45;54.49
46456;BME280;64052;47.466;9.094;2023-01-04T18:57:22;96625.56;;;12.53;55.04
46456;BME280;64052;47.466;9.094;2023-01-04T19:02:24;96624.72;;;12.53;54.80
46456;BME280;64052;47.466;9.094;2023-01-04T19:07:26;96618.13;;;12.47;54.89
46456;BME280;64052;47.466;9.094;2023-01-04T19:12:27;96624.72;;;12.64;54.46
46456;BME280;64052;47.466;9.094;2023-01-04T19:17:29;96619.34;;;12.54;55.01
46456;BME280;64052;47.466;9.094;2023-01-04T19:22:30;96618.69;;;12.62;53.82
46456;BME280;64052;47.466;9.094;2023-01-04T19:27:32;96610.63;;;12.63;54.01
46456;BME280;64052;47.466;9.094;2023-01-04T19:32:34;96617.25;;;12.58;54.66
46456;BME280;64052;47.466;9.094;2023-01-04T19:37:35;96617.53;;;12.43;54.61
46456;BME280;64052;47.466;9.094;2023-01-04T19:42:37;96604.59;;;12.29;54.81
46456;BME280;64052;47.466;9.094;2023-01-04T19:47:38;96603.28;;;12.23;55.40
46456;BME280;64052;47.466;9.094;2023-01-04T19:52:40;96600.00;;;12.42;55.24
46456;BME280;64052;47.466;9.094;2023-01-04T19:57:41;96614.88;;;12.43;54.29
46456;BME280;64052;47.466;9.094;2023-01-04T20:02:43;96617.88;;;12.50;54.66
46456;BME280;64052;47.466;9.094;2023-01-04T20:07:45;96616.50;;;12.67;54.58
46456;BME280;64052;47.466;9.094;2023-01-04T20:12:46;96608.03;;;12.85;53.76
46456;BME280;64052;47.466;9.094;2023-01-04T20:17:48;96598.66;;;12.81;54.11
46456;BME280;64052;47.466;9.094;2023-01-04T20:22:49;96610.81;;;12.83;54.24
46456;BME280;64052;47.466;9.094;2023-01-04T20:27:51;96605.63;;;12.82;54.56
46456;BME280;64052;47.466;9.094;2023-01-04T20:32:52;96597.34;;;12.75;54.79
46456;BME280;64052;47.466;9.094;2023-01-04T20:37:54;96584.69;;;12.90;54.19
46456;BME280;64052;47.466;9.094;2023-01-04T20:42:55;96583.88;;;13.11;54.52
46456;BME280;64052;47.466;9.094;2023-01-04T20:47:57;96600.47;;;13.13;53.76
46456;BME280;64052;47.466;9.094;2023-01-04T20:52:58;96578.03;;;13.17;54.34
46456;BME280;64052;47.466;9.094;2023-01-04T20:58:00;96602.88;;;13.04;55.16
46456;BME280;64052;47.466;9.094;2023-01-04T21:03:03;96589.66;;;13.26;55.31
46456;BME280;64052;47.466;9.094;2023-01-04T21:08:05;96593.16;;;13.26;55.01
46456;BME280;64052;47.466;9.094;2023-01-04T21:13:08;96585.72;;;13.20;54.55
46456;BME280;64052;47.466;9.094;2023-01-04T21:18:10;96590.38;;;13.28;54.81
46456;BME280;64052;47.466;9.094;2023-01-04T21:23:16;96586.63;;;13.30;55.03
46456;BME280;64052;47.466;9.094;2023-01-04T21:28:20;96576.22;;;13.39;54.39
46456;BME280;64052;47.466;9.094;2023-01-04T21:33:22;96575.38;;;13.38;54.46
46456;BME280;64052;47.466;9.094;2023-01-04T21:38:23;96572.75;;;13.59;54.12
46456;BME280;64052;47.466;9.094;2023-01-04T21:43:25;96582.00;;;13.65;54.55
46456;BME280;64052;47.466;9.094;2023-01-04T21:48:26;96570.09;;;13.59;55.13
46456;BME280;64052;47.466;9.094;2023-01-04T21:53:29;96567.97;;;13.53;54.86
46456;BME280;64052;47.466;9.094;2023-01-04T21:58:34;96571.00;;;13.48;54.93
46456;BME280;64052;47.466;9.094;2023-01-04T22:03:37;96567.38;;;13.49;55.39
46456;BME280;64052;47.466;9.094;2023-01-04T22:08:39;96569.13;;;13.60;54.93
46456;BME280;64052;47.466;9.094;2023-01-04T22:13:41;96570.25;;;13.68;54.67
46456;BME280;64052;47.466;9.094;2023-01-04T22:18:47;96582.44;;;13.80;54.03
46456;BME280;64052;47.466;9.094;2023-01-04T22:23:49;96575.31;;;13.71;54.41
46456;BME280;64052;47.466;9.094;2023-01-04T22:28:51;96586.22;;;13.77;54.34
46456;BME280;64052;47.466;9.094;2023-01-04T22:33:52;96594.22;;;13.87;55.21
46456;BME280;64052;47.466;9.094;2023-01-04T22:38:55;96588.56;;;13.49;56.90
46456;BME280;64052;47.466;9.094;2023-01-04T22:44:00;96576.81;;;13.42;57.52
46456;BME280;64052;47.466;9.094;2023-01-04T22:49:08;96594.38;;;13.43;58.47
46456;BME280;64052;47.466;9.094;2023-01-04T22:54:15;96607.44;;;13.35;58.92
46456;BME280;64052;47.466;9.094;2023-01-04T22:59:18;96609.03;;;13.26;59.59
46456;BME280;64052;47.466;9.094;2023-01-04T23:04:22;96608.78;;;13.08;61.26
46456;BME280;64052;47.466;9.094;2023-01-04T23:09:24;96603.47;;;13.08;62.75
46456;BME280;64052;47.466;9.094;2023-01-04T23:14:28;96598.84;;;13.00;62.85
46456;BME280;64052;47.466;9.094;2023-01-04T23:19:37;96593.28;;;13.03;63.49
46456;BME280;64052;47.466;9.094;2023-01-04T23:24:39;96603.91;;;12.92;63.38
46456;BME280;64052;47.466;9.094;2023-01-04T23:30:21;96602.00;;;12.83;63.99
46456;BME280;64052;47.466;9.094;2023-01-04T23:42:13;96580.69;;;12.96;63.70
46456;BME280;64052;47.466;9.094;2023-01-04T23:47:15;96578.38;;;13.02;63.58
46456;BME280;64052;47.466;9.094;2023-01-04T23:52:18;96573.72;;;12.95;63.97
46456;BME280;64052;47.466;9.094;2023-01-04T23:57:20;96566.81;;;13.03;63.63
